Kermit, TX

6:56 PM CDT on August 25, 2016 (GMT -0500)
Winkler County | | Change Station

Elev 2822 ft 31.78 °N, 103.20 °W | Updated 3 minutes ago

Scattered Clouds
Scattered Clouds
73 °F
Feels Like 73 °F
N
9
Wind Variable Wind from SE

Today
High -- | Low -- °F
--% Chance of Precip.
Yesterday
High -- | Low -- °F
Precip. -- in
Pressure 29.94 in
Visibility 10.0 miles
Clouds Few 3200 ft
Scattered Clouds 4400 ft
Dew Point 57 °F
Humidity 57%
Rainfall 0.00 in
Snow Depth Not available.
7:23 AM 8:24 PM
Last Quarter, 41% visible
METAR KINK 252353Z AUTO 13008KT 10SM FEW032 SCT044 23/14 A3004 RMK AO2 PK WND 14026/2327 WSHFT 2320 SLP136 T02280139 10289 20228 53000 TSNO
Pressure 29.94 in
Visibility 10.0 miles
Clouds Few 3200 ft
Scattered Clouds 4400 ft
Dew Point 57 °F
Humidity 57%
Rainfall 0.00 in
Snow Depth Not available.
7:23 AM 8:24 PM
Last Quarter, 41% visible
METAR KINK 252353Z AUTO 13008KT 10SM FEW032 SCT044 23/14 A3004 RMK AO2 PK WND 14026/2327 WSHFT 2320 SLP136 T02280139 10289 20228 53000 TSNO
A tropical disturbance pushing toward the Bahamas, is expected to develop into a tropical depression or storm, and will likely target Florida and the Gulf Coast this weekend into next week.

Right now, the disturbance remains a broad area of low pressure pushing through the Dominican Republic and Haiti, headed toward the southeast Bahamas. Rainfall totals over 3 inches (with locally higher amounts) are expected in HispaƱiola, particularly over elevated terrain.

10-Day Weather Forecast

Almanac

Astronomy

Aug. 25, 2016 Rise Set
Actual Time
Civil Twilight
Nautical Twilight
Astronomical Twilight
Moon
Length of Visible Light
Length of Day
Tomorrow will be .
, % of the Moon is Illuminated

Today's Extremes

State Highs State Lows

Community

WunderPhotos

Upload Photos

1,934,967 photos uploaded!

WunderBlog® & News

Nearby

Air Quality

  Air Quality AQ Index Pollutant
Not available.

Snow Depth

Station Depth Elevation

Earthquake Activity

City Distance Mag. Time & Date
Minimum magnitude displayed is 2.5.

Coastal Water Temperatures

Place Temperature

Stations

Nearby Weather Stations

Station Location Temp. Windchill Dew Point Humidity Wind Precip. Elev Updated Type
                   

Watches & Warnings

There are currently no watches in effect.